createdAt,value
2023-05-15T00:01:24.652Z,101072.97
2023-05-15T00:03:52.222Z,101077.28
2023-05-15T00:06:19.906Z,101076.44
2023-05-15T00:08:46.803Z,101068.59
2023-05-15T00:11:13.688Z,101066.91
2023-05-15T00:13:40.607Z,101060.72
2023-05-15T00:16:09.257Z,101058.94
2023-05-15T00:18:36.499Z,101068.66
2023-05-15T00:21:03.576Z,101058.31
2023-05-15T00:23:30.514Z,101061.84
2023-05-15T00:25:57.426Z,101061.03
2023-05-15T00:28:24.443Z,101057.56
2023-05-15T00:30:52.295Z,101060.13
2023-05-15T00:33:19.326Z,101052.19
2023-05-15T00:35:46.366Z,101046.94
2023-05-15T00:38:13.245Z,101049.59
2023-05-15T00:40:42.519Z,101049.69
2023-05-15T00:43:11.207Z,101044.53
2023-05-15T00:45:41.257Z,101041.97
2023-05-15T00:48:10.662Z,101043.81
2023-05-15T00:50:41.446Z,101036.84
2023-05-15T00:53:09.137Z,101028.22
2023-05-15T00:55:36.653Z,101026.44
2023-05-15T00:58:03.970Z,101032.56
2023-05-15T01:00:33.498Z,101028.16
2023-05-15T01:03:01.925Z,101035.19
2023-05-15T01:05:29.503Z,101019.41
2023-05-15T01:08:19.649Z,101020.31
2023-05-15T01:10:49.908Z,101015.94
2023-05-15T01:13:23.380Z,101013.38
2023-05-15T01:15:50.864Z,101016.84
2023-05-15T01:18:17.958Z,101010.78
2023-05-15T01:20:56.583Z,101017.84
2023-05-15T01:23:54.622Z,101017.03
2023-05-15T01:27:07.826Z,101013.75
2023-05-15T01:29:51.384Z,101016.66
2023-05-15T01:32:30.109Z,101008.94
2023-05-15T01:35:34.412Z,101009.88
2023-05-15T01:38:42.292Z,101005.53
2023-05-15T01:41:24.641Z,101006.50
2023-05-15T01:44:05.142Z,101003.94
2023-05-15T01:46:36.158Z,100995.19
2023-05-15T01:49:03.908Z,100989.09
2023-05-15T01:51:32.024Z,100987.38
2023-05-15T01:53:59.796Z,100982.16
2023-05-15T01:56:27.692Z,100983.94
2023-05-15T01:58:56.215Z,100977.88
2023-05-15T02:01:24.748Z,100980.53
2023-05-15T02:03:53.224Z,100974.44
2023-05-15T02:06:21.770Z,100969.25
2023-05-15T02:08:49.684Z,100971.03
2023-05-15T02:11:16.779Z,100968.47
2023-05-15T02:13:46.919Z,100966.75
2023-05-15T02:16:13.840Z,100970.25
2023-05-15T02:18:41.472Z,100972.91
2023-05-15T02:21:08.529Z,100972.09
2023-05-15T02:23:36.074Z,100968.69
2023-05-15T02:26:17.482Z,100974.00
2023-05-15T02:28:59.197Z,100963.56
2023-05-15T02:31:53.109Z,100961.84
2023-05-15T02:34:45.745Z,100964.50
2023-05-15T02:37:15.586Z,100964.50
2023-05-15T02:39:43.916Z,100960.16
2023-05-15T02:42:15.015Z,100956.72
2023-05-15T02:44:43.524Z,100960.25
2023-05-15T02:47:12.240Z,100951.56
2023-05-15T02:49:40.624Z,100945.44
2023-05-15T02:52:07.932Z,100948.97
2023-05-15T02:54:34.783Z,100942.88
2023-05-15T02:57:01.641Z,100941.19
2023-05-15T02:59:28.793Z,100943.78
2023-05-15T03:01:55.724Z,100935.09
2023-05-15T03:04:22.743Z,100931.63
2023-05-15T03:06:49.773Z,100930.75
2023-05-15T03:09:16.664Z,100935.19
2023-05-15T03:11:43.624Z,100936.94
2023-05-15T03:14:10.814Z,100918.63
2023-05-15T03:16:38.897Z,100920.38
2023-05-15T03:19:06.139Z,100923.97
2023-05-15T03:21:34.925Z,100936.25
2023-05-15T03:24:02.230Z,100921.41
2023-05-15T03:26:29.151Z,100914.44
2023-05-15T03:28:56.246Z,100926.69
2023-05-15T03:31:23.214Z,100920.59
2023-05-15T03:33:51.429Z,100911.94
2023-05-15T03:36:18.450Z,100919.81
2023-05-15T03:38:45.409Z,100919.84
2023-05-15T03:41:12.313Z,100918.13
2023-05-15T03:43:39.212Z,100919.84
2023-05-15T03:46:06.346Z,100925.09
2023-05-15T03:48:33.235Z,100915.47
2023-05-15T03:51:00.156Z,100917.19
2023-05-15T03:53:27.037Z,100910.19
2023-05-15T03:55:53.955Z,100907.53
2023-05-15T03:58:21.165Z,100907.53
2023-05-15T04:00:49.935Z,100912.75
2023-05-15T04:03:16.859Z,100911.81
2023-05-15T04:05:44.006Z,100903.03
2023-05-15T04:08:12.417Z,100907.31
2023-05-15T04:10:39.462Z,100896.63
2023-05-15T04:13:06.340Z,100898.13
2023-05-15T04:15:33.230Z,100899.53
2023-05-15T04:18:00.228Z,100894.94
2023-05-15T04:20:27.151Z,100897.41
2023-05-15T04:22:54.229Z,100899.06
2023-05-15T04:25:21.476Z,100900.03
2023-05-15T04:27:49.227Z,100896.72
2023-05-15T04:30:16.613Z,100889.84
2023-05-15T04:32:43.560Z,100893.28
2023-05-15T04:35:12.188Z,100893.25
2023-05-15T04:37:41.250Z,100895.09
2023-05-15T04:40:09.363Z,100886.41
2023-05-15T04:42:39.159Z,100884.66
2023-05-15T04:45:07.799Z,100871.56
2023-05-15T04:47:35.343Z,100876.75
2023-05-15T04:50:02.806Z,100873.25
2023-05-15T04:52:29.698Z,100874.09
2023-05-15T04:54:56.580Z,100865.38
2023-05-15T04:57:23.962Z,100873.31
2023-05-15T04:59:50.808Z,100862.09
2023-05-15T05:02:23.941Z,100866.63
2023-05-15T05:04:51.283Z,100862.31
2023-05-15T05:07:18.385Z,100865.84
2023-05-15T05:09:45.464Z,100864.13
2023-05-15T05:12:12.386Z,100866.75
2023-05-15T05:14:41.884Z,100853.59
2023-05-15T05:17:08.726Z,100869.28
2023-05-15T05:19:35.637Z,100863.19
2023-05-15T05:22:05.213Z,100857.88
2023-05-15T05:24:32.492Z,100852.59
2023-05-15T05:26:59.389Z,100845.69
2023-05-15T05:29:26.489Z,100852.72
2023-05-15T05:31:53.663Z,100844.91
2023-05-15T05:34:20.823Z,100847.53
2023-05-15T05:36:48.018Z,100840.47
2023-05-15T05:39:19.378Z,100843.81
2023-05-15T05:41:46.241Z,100848.06
2023-05-15T05:44:13.108Z,100842.69
2023-05-15T05:46:40.027Z,100834.69
2023-05-15T05:49:06.963Z,100840.69
2023-05-15T05:51:38.973Z,100827.44
2023-05-15T05:54:05.915Z,100817.75
2023-05-15T05:56:32.816Z,100830.63
2023-05-15T05:59:01.781Z,100834.03
2023-05-15T06:01:28.785Z,100820.84
2023-05-15T06:03:55.980Z,100825.13
2023-05-15T06:06:23.005Z,100821.59
2023-05-15T06:08:49.864Z,100826.78
2023-05-15T06:11:16.950Z,100810.94
2023-05-15T06:13:43.813Z,100817.84
2023-05-15T06:16:10.694Z,100813.34
2023-05-15T06:18:37.566Z,100809.63
2023-05-15T06:21:04.506Z,100808.66
2023-05-15T06:23:31.456Z,100811.09
2023-05-15T06:25:58.335Z,100802.09
2023-05-15T06:28:25.194Z,100798.31
2023-05-15T06:30:52.253Z,100804.13
2023-05-15T06:33:19.141Z,100792.56
2023-05-15T06:35:46.142Z,100805.25
2023-05-15T06:38:13.028Z,100809.44
2023-05-15T06:40:39.878Z,100807.47
2023-05-15T06:43:06.733Z,100803.72
2023-05-15T06:45:33.569Z,100806.16
2023-05-15T06:48:01.753Z,100794.50
2023-05-15T06:50:28.961Z,100802.16
2023-05-15T06:52:55.881Z,100804.28
2023-05-15T06:55:22.949Z,100807.47
2023-05-15T06:57:50.008Z,100802.72
2023-05-15T07:00:17.206Z,100798.97
2023-05-15T07:02:44.154Z,100805.66
2023-05-15T07:05:11.576Z,100802.03
2023-05-15T07:07:38.661Z,100794.09
2023-05-15T07:10:06.741Z,100805.25
2023-05-15T07:12:34.224Z,100812.16
2023-05-15T07:15:01.160Z,100799.41
2023-05-15T07:17:28.167Z,100806.06
2023-05-15T07:19:55.040Z,100798.03
2023-05-15T07:22:21.934Z,100790.75
2023-05-15T07:24:48.809Z,100778.91
2023-05-15T07:27:15.659Z,100794.47
2023-05-15T07:29:42.494Z,100790.59
2023-05-15T07:32:09.382Z,100786.75
2023-05-15T07:34:36.273Z,100789.38
2023-05-15T07:37:03.146Z,100786.22
2023-05-15T07:39:30.062Z,100776.16
2023-05-15T07:41:56.999Z,100781.97
2023-05-15T07:44:23.893Z,100782.84
2023-05-15T07:46:50.783Z,100779.47
2023-05-15T07:49:17.672Z,100781.28
2023-05-15T07:51:44.583Z,100791.72
2023-05-15T07:54:11.536Z,100787.91
2023-05-15T07:56:38.739Z,100776.19
2023-05-15T07:59:05.635Z,100788.34
2023-05-15T08:01:32.943Z,100789.88
2023-05-15T08:04:00.351Z,100782.47
2023-05-15T08:06:27.403Z,100759.38
2023-05-15T08:08:54.279Z,100766.91
2023-05-15T08:11:21.954Z,100761.41
2023-05-15T08:13:48.954Z,100761.91
2023-05-15T08:16:16.025Z,100770.22
2023-05-15T08:18:42.968Z,100752.25
2023-05-15T08:21:09.890Z,100751.66
2023-05-15T08:23:36.831Z,100748.53
2023-05-15T08:26:03.690Z,100745.34
2023-05-15T08:28:30.571Z,100732.09
2023-05-15T08:30:57.458Z,100726.59
2023-05-15T08:33:24.334Z,100727.25
2023-05-15T08:35:51.942Z,100724.56
2023-05-15T08:38:18.848Z,100715.25
2023-05-15T08:40:48.955Z,100716.28
2023-05-15T08:43:17.937Z,100714.56
2023-05-15T08:45:44.842Z,100710.44
2023-05-15T08:48:15.518Z,100707.88
2023-05-15T08:50:44.219Z,100701.16
2023-05-15T08:53:12.785Z,100699.97
2023-05-15T08:55:40.769Z,100699.47
2023-05-15T08:58:10.057Z,100690.78
2023-05-15T09:00:37.594Z,100690.34
2023-05-15T09:03:04.811Z,100693.53
2023-05-15T09:05:32.239Z,100695.13
2023-05-15T09:08:03.772Z,100686.84
2023-05-15T09:10:31.642Z,100680.47
2023-05-15T09:13:01.901Z,100680.63
2023-05-15T09:15:30.125Z,100674.47
2023-05-15T09:17:58.036Z,100670.81
2023-05-15T09:20:32.438Z,100673.31
2023-05-15T09:23:02.139Z,100671.34
2023-05-15T09:25:39.771Z,100664.91
2023-05-15T09:28:33.844Z,100659.25
2023-05-15T09:31:02.946Z,100670.38
2023-05-15T09:33:36.613Z,100663.25
2023-05-15T09:36:06.836Z,100664.03
2023-05-15T09:38:35.374Z,100650.69
2023-05-15T09:41:06.080Z,100661.53
2023-05-15T09:43:40.989Z,100655.66
2023-05-15T09:46:09.479Z,100654.81
2023-05-15T09:48:36.617Z,100653.09
2023-05-15T09:51:05.845Z,100660.13
2023-05-15T09:53:32.806Z,100653.94
2023-05-15T09:55:59.899Z,100655.19
2023-05-15T09:58:26.859Z,100661.25
2023-05-15T10:00:53.723Z,100658.47
2023-05-15T10:03:20.928Z,100658.88
2023-05-15T10:05:48.103Z,100664.47
2023-05-15T10:08:27.156Z,100660.28
2023-05-15T10:10:55.142Z,100658.78
2023-05-15T10:13:23.515Z,100659.38
2023-05-15T10:15:51.307Z,100650.41
2023-05-15T10:18:21.561Z,100658.06
2023-05-15T10:20:49.345Z,100654.41
2023-05-15T10:23:18.734Z,100656.88
2023-05-15T10:26:01.991Z,100645.19
2023-05-15T10:28:29.188Z,100641.31
2023-05-15T10:31:00.186Z,100645.66
2023-05-15T10:33:28.096Z,100640.22
2023-05-15T10:35:56.652Z,100639.16
2023-05-15T10:38:23.998Z,100637.44
2023-05-15T10:40:57.661Z,100637.75
2023-05-15T10:43:30.663Z,100623.53
2023-05-15T10:45:57.864Z,100636.69
2023-05-15T10:48:25.693Z,100628.00
2023-05-15T10:50:52.632Z,100619.09
2023-05-15T10:53:20.713Z,100617.28
2023-05-15T10:55:49.921Z,100617.56
2023-05-15T10:58:16.788Z,100610.03
2023-05-15T11:00:45.539Z,100615.78
2023-05-15T11:03:16.571Z,100607.38
2023-05-15T11:06:11.110Z,100604.88
2023-05-15T11:08:40.544Z,100609.78
2023-05-15T11:11:07.739Z,100604.13
2023-05-15T11:14:05.681Z,100600.50
2023-05-15T11:16:54.454Z,100597.22
2023-05-15T11:19:32.339Z,100593.06
2023-05-15T11:22:18.904Z,100589.69
2023-05-15T11:25:04.300Z,100581.16
2023-05-15T11:27:38.298Z,100582.81
2023-05-15T11:30:13.381Z,100577.47
2023-05-15T11:32:41.658Z,100578.59
2023-05-15T11:35:13.876Z,100575.16
2023-05-15T11:37:53.917Z,100570.69
2023-05-15T11:40:23.661Z,100576.88
2023-05-15T11:43:08.272Z,100568.41
2023-05-15T11:45:40.477Z,100572.94
2023-05-15T11:48:12.910Z,100570.72
2023-05-15T11:50:42.200Z,100563.44
2023-05-15T11:53:10.247Z,100564.38
2023-05-15T11:55:40.628Z,100563.25
2023-05-15T11:58:16.585Z,100557.25
2023-05-15T12:00:46.404Z,100540.69
2023-05-15T12:03:24.398Z,100540.50
2023-05-15T12:05:59.001Z,100533.72
2023-05-15T12:08:34.504Z,100537.13
2023-05-15T12:11:03.961Z,100542.66
2023-05-15T12:13:33.314Z,100530.09
2023-05-15T12:16:03.319Z,100531.81
2023-05-15T12:18:32.455Z,100519.06
2023-05-15T12:21:00.138Z,100518.66
2023-05-15T12:23:28.381Z,100518.28
2023-05-15T12:26:02.473Z,100516.00
2023-05-15T12:28:31.448Z,100515.31
2023-05-15T12:30:59.064Z,100508.47
2023-05-15T12:33:26.071Z,100509.13
2023-05-15T12:36:00.281Z,100504.75
2023-05-15T12:38:28.856Z,100520.09
2023-05-15T12:40:56.966Z,100507.44
2023-05-15T12:43:25.495Z,100514.25
2023-05-15T12:45:56.582Z,100522.88
2023-05-15T12:48:29.453Z,100536.47
2023-05-15T12:50:56.741Z,100540.06
2023-05-15T12:53:23.623Z,100545.59
2023-05-15T12:55:51.342Z,100532.53
2023-05-15T12:58:19.104Z,100532.66
2023-05-15T13:00:47.947Z,100530.94
2023-05-15T13:03:15.277Z,100534.69
2023-05-15T13:05:44.737Z,100528.44
2023-05-15T13:08:17.360Z,100528.88
2023-05-15T13:10:44.797Z,100528.13
2023-05-15T13:13:11.716Z,100517.72
2023-05-15T13:15:40.381Z,100516.69
2023-05-15T13:18:16.511Z,100511.22
2023-05-15T13:20:48.946Z,100507.66
2023-05-15T13:23:20.031Z,100512.63
2023-05-15T13:25:47.169Z,100504.56
2023-05-15T13:28:14.126Z,100492.25
2023-05-15T13:30:41.989Z,100493.19
2023-05-15T13:33:11.789Z,100491.66
2023-05-15T13:35:39.961Z,100490.69
2023-05-15T13:38:09.438Z,100489.94
2023-05-15T13:40:38.561Z,100496.13
2023-05-15T13:43:08.534Z,100496.78
2023-05-15T13:45:35.685Z,100495.63
2023-05-15T13:48:02.948Z,100505.91
2023-05-15T13:50:29.873Z,100509.88
2023-05-15T13:52:56.736Z,100499.19
2023-05-15T13:55:25.587Z,100504.00
2023-05-15T13:57:53.147Z,100521.75
2023-05-15T14:00:20.505Z,100497.19
2023-05-15T14:02:47.477Z,100494.00
2023-05-15T14:05:17.488Z,100496.84
2023-05-15T14:07:44.883Z,100488.81
2023-05-15T14:10:11.843Z,100486.47
2023-05-15T14:12:39.641Z,100484.28
2023-05-15T14:15:07.182Z,100485.00
2023-05-15T14:17:34.286Z,100489.28
2023-05-15T14:20:01.144Z,100486.63
2023-05-15T14:22:28.058Z,100483.78
2023-05-15T14:24:54.945Z,100482.16
2023-05-15T14:27:21.781Z,100481.31
2023-05-15T14:29:49.366Z,100476.00
2023-05-15T14:32:17.141Z,100470.06
2023-05-15T14:34:44.675Z,100477.09
2023-05-15T14:37:11.785Z,100472.44
2023-05-15T14:39:39.017Z,100470.25
2023-05-15T14:42:06.645Z,100469.75
2023-05-15T14:44:34.779Z,100466.56
2023-05-15T14:47:09.507Z,100470.56
2023-05-15T14:49:36.940Z,100462.81
2023-05-15T14:52:06.513Z,100461.06
2023-05-15T14:54:33.725Z,100461.69
2023-05-15T14:57:00.677Z,100445.13
2023-05-15T14:59:28.284Z,100468.56
2023-05-15T15:01:55.334Z,100457.75
2023-05-15T15:04:22.473Z,100446.25
2023-05-15T15:06:49.428Z,100448.09
2023-05-15T15:09:16.972Z,100447.56
2023-05-15T15:11:44.722Z,100456.28
2023-05-15T15:14:11.620Z,100435.88
2023-05-15T15:16:38.611Z,100443.75
2023-05-15T15:19:05.668Z,100444.94
2023-05-15T15:21:34.511Z,100430.59
2023-05-15T15:24:01.443Z,100438.31
2023-05-15T15:26:28.342Z,100435.50
2023-05-15T15:29:00.648Z,100436.34
2023-05-15T15:31:31.679Z,100440.88
2023-05-15T15:33:59.337Z,100436.50
2023-05-15T15:36:26.321Z,100441.03
2023-05-15T15:38:53.280Z,100424.94
2023-05-15T15:41:21.541Z,100431.78
2023-05-15T15:43:48.575Z,100435.44
2023-05-15T15:46:15.611Z,100427.75
2023-05-15T15:48:42.562Z,100431.91
2023-05-15T15:51:09.452Z,100423.94
2023-05-15T15:53:36.395Z,100431.97
2023-05-15T15:56:03.557Z,100425.03
2023-05-15T15:58:30.493Z,100428.75
2023-05-15T16:00:57.972Z,100421.91
2023-05-15T16:03:25.107Z,100427.44
2023-05-15T16:05:52.051Z,100422.34
2023-05-15T16:08:19.023Z,100431.16
2023-05-15T16:10:45.905Z,100427.34
2023-05-15T16:13:12.805Z,100428.69
2023-05-15T16:15:39.666Z,100429.00
2023-05-15T16:18:07.030Z,100433.81
2023-05-15T16:20:35.186Z,100428.78
2023-05-15T16:23:02.448Z,100430.75
2023-05-15T16:25:29.410Z,100414.72
2023-05-15T16:27:56.292Z,100426.16
2023-05-15T16:30:28.275Z,100419.59
2023-05-15T16:33:01.133Z,100420.97
2023-05-15T16:35:28.200Z,100427.66
2023-05-15T16:37:55.299Z,100420.09
2023-05-15T16:40:22.194Z,100422.09
2023-05-15T16:42:49.120Z,100424.16
2023-05-15T16:45:16.356Z,100420.81
2023-05-15T16:47:43.259Z,100425.44
2023-05-15T16:50:10.595Z,100425.09
2023-05-15T16:52:39.144Z,100418.66
2023-05-15T16:55:06.701Z,100413.78
2023-05-15T16:57:33.590Z,100421.59
2023-05-15T17:00:00.484Z,100420.50
2023-05-15T17:02:27.445Z,100423.84
2023-05-15T17:04:54.424Z,100422.50
2023-05-15T17:07:21.288Z,100425.38
2023-05-15T17:09:48.162Z,100428.88
2023-05-15T17:12:15.047Z,100423.97
2023-05-15T17:14:41.907Z,100422.72
2023-05-15T17:17:08.972Z,100430.72
2023-05-15T17:19:35.846Z,100437.91
2023-05-15T17:22:02.918Z,100439.63
2023-05-15T17:24:38.790Z,100439.19
2023-05-15T17:27:09.445Z,100438.94
2023-05-15T17:29:36.411Z,100438.59
2023-05-15T17:32:04.198Z,100443.53
2023-05-15T17:34:31.113Z,100441.16
2023-05-15T17:36:58.008Z,100451.81
2023-05-15T17:39:25.074Z,100448.31
2023-05-15T17:41:51.977Z,100446.84
2023-05-15T17:44:18.922Z,100454.69
2023-05-15T17:46:45.803Z,100449.13
2023-05-15T17:49:12.687Z,100463.72
2023-05-15T17:51:39.585Z,100465.56
2023-05-15T17:54:06.602Z,100471.84
2023-05-15T17:56:33.507Z,100467.63
2023-05-15T17:59:00.394Z,100479.06
2023-05-15T18:01:27.297Z,100487.44
2023-05-15T18:03:54.268Z,100481.66
2023-05-15T18:06:21.301Z,100491.06
2023-05-15T18:08:48.666Z,100483.19
2023-05-15T18:11:22.505Z,100496.91
2023-05-15T18:13:49.912Z,100504.09
2023-05-15T18:16:17.941Z,100504.31
2023-05-15T18:18:45.073Z,100497.59
2023-05-15T18:21:11.946Z,100508.19
2023-05-15T18:23:38.814Z,100498.44
2023-05-15T18:26:05.786Z,100504.50
2023-05-15T18:28:32.688Z,100509.69
2023-05-15T18:30:59.651Z,100504.06
2023-05-15T18:33:26.561Z,100513.72
2023-05-15T18:35:53.694Z,100513.38
2023-05-15T18:38:21.012Z,100515.47
2023-05-15T18:40:48.296Z,100509.56
2023-05-15T18:43:15.376Z,100514.00
2023-05-15T18:45:42.561Z,100522.88
2023-05-15T18:48:09.552Z,100525.81
2023-05-15T18:50:36.554Z,100528.91
2023-05-15T18:53:03.427Z,100539.13
2023-05-15T18:55:30.352Z,100538.91
2023-05-15T18:57:57.255Z,100539.59
2023-05-15T19:00:37.265Z,100546.06
2023-05-15T19:03:05.762Z,100546.34
2023-05-15T19:05:34.156Z,100544.81
2023-05-15T19:08:01.717Z,100552.72
2023-05-15T19:10:29.499Z,100544.81
2023-05-15T19:12:57.703Z,100553.50
2023-05-15T19:15:25.422Z,100545.84
2023-05-15T19:17:52.771Z,100543.69
2023-05-15T19:20:20.476Z,100551.63
2023-05-15T19:22:47.387Z,100555.41
2023-05-15T19:25:14.326Z,100551.31
2023-05-15T19:27:41.448Z,100559.47
2023-05-15T19:30:09.880Z,100559.69
2023-05-15T19:32:37.768Z,100555.50
2023-05-15T19:35:05.704Z,100561.88
2023-05-15T19:37:32.806Z,100562.03
2023-05-15T19:39:59.823Z,100564.16
2023-05-15T19:42:26.868Z,100558.31
2023-05-15T19:44:53.823Z,100565.41
2023-05-15T19:47:20.790Z,100562.72
2023-05-15T19:49:47.671Z,100559.09
2023-05-15T19:52:15.980Z,100563.31
2023-05-15T19:54:42.848Z,100579.03
2023-05-15T19:57:09.737Z,100573.75
2023-05-15T19:59:36.666Z,100577.25
2023-05-15T20:02:05.167Z,100572.00
2023-05-15T20:04:32.518Z,100584.28
2023-05-15T20:06:59.442Z,100575.44
2023-05-15T20:09:26.357Z,100582.53
2023-05-15T20:11:53.242Z,100585.50
2023-05-15T20:14:20.129Z,100586.94
2023-05-15T20:16:47.067Z,100583.91
2023-05-15T20:19:14.601Z,100586.91
2023-05-15T20:21:41.566Z,100590.63
2023-05-15T20:24:08.484Z,100587.38
2023-05-15T20:26:35.974Z,100590.28
2023-05-15T20:29:03.529Z,100588.94
2023-05-15T20:31:30.551Z,100590.97
2023-05-15T20:33:57.600Z,100604.13
2023-05-15T20:36:25.570Z,100614.56
2023-05-15T20:38:52.796Z,100614.44
2023-05-15T20:41:22.240Z,100618.75
2023-05-15T20:43:49.885Z,100618.63
2023-05-15T20:46:17.014Z,100615.00
2023-05-15T20:48:44.121Z,100608.78
2023-05-15T20:51:11.058Z,100617.50
2023-05-15T20:53:37.957Z,100613.16
2023-05-15T20:56:04.958Z,100615.75
2023-05-15T20:58:31.886Z,100611.31
2023-05-15T21:01:00.975Z,100618.31
2023-05-15T21:03:28.999Z,100614.03
2023-05-15T21:05:57.569Z,100611.78
2023-05-15T21:08:24.721Z,100613.13
2023-05-15T21:10:53.152Z,100609.09
2023-05-15T21:13:20.122Z,100604.94
2023-05-15T21:15:47.176Z,100609.44
2023-05-15T21:18:14.296Z,100608.50
2023-05-15T21:20:41.761Z,100606.75
2023-05-15T21:23:08.751Z,100616.19
2023-05-15T21:25:35.846Z,100611.78
2023-05-15T21:28:03.976Z,100603.06
2023-05-15T21:30:31.614Z,100604.13
2023-05-15T21:32:58.592Z,100592.91
2023-05-15T21:35:25.643Z,100600.81
2023-05-15T21:37:52.533Z,100607.78
2023-05-15T21:40:19.495Z,100616.56
2023-05-15T21:42:46.439Z,100609.47
2023-05-15T21:45:13.360Z,100611.22
2023-05-15T21:47:40.665Z,100614.72
2023-05-15T21:50:07.936Z,100617.38
2023-05-15T21:52:34.854Z,100618.38
2023-05-15T21:55:01.841Z,100619.31
2023-05-15T21:57:28.932Z,100616.72
2023-05-15T21:59:55.833Z,100615.06
2023-05-15T22:02:22.803Z,100620.44
2023-05-15T22:04:49.787Z,100606.50
2023-05-15T22:07:16.730Z,100606.56
2023-05-15T22:09:44.943Z,100604.00
2023-05-15T22:12:11.852Z,100604.94
2023-05-15T22:14:46.954Z,100609.41
2023-05-15T22:17:27.248Z,100600.78
2023-05-15T22:19:54.446Z,100607.75
2023-05-15T22:22:21.501Z,100612.19
2023-05-15T22:24:48.417Z,100610.53
2023-05-15T22:27:16.741Z,100608.00
2023-05-15T22:29:43.786Z,100615.94
2023-05-15T22:32:10.756Z,100621.25
2023-05-15T22:34:37.730Z,100622.16
2023-05-15T22:37:04.873Z,100613.59
2023-05-15T22:39:32.700Z,100627.53
2023-05-15T22:41:59.598Z,100635.50
2023-05-15T22:44:26.587Z,100645.25
2023-05-15T22:46:53.451Z,100636.59
2023-05-15T22:49:25.456Z,100641.13
2023-05-15T22:51:54.190Z,100647.38
2023-05-15T22:54:21.946Z,100646.63
2023-05-15T22:56:51.982Z,100646.75
2023-05-15T22:59:19.517Z,100658.19
2023-05-15T23:01:47.604Z,100667.91
2023-05-15T23:04:14.978Z,100670.59
2023-05-15T23:06:41.988Z,100659.38
2023-05-15T23:09:09.440Z,100662.06
2023-05-15T23:11:37.710Z,100662.13
2023-05-15T23:14:04.668Z,100656.94
2023-05-15T23:16:31.744Z,100654.41
2023-05-15T23:18:58.779Z,100660.50
2023-05-15T23:21:26.076Z,100650.09
2023-05-15T23:23:52.956Z,100653.63
2023-05-15T23:26:19.929Z,100671.16
2023-05-15T23:28:47.059Z,100672.06
2023-05-15T23:31:14.686Z,100677.38
2023-05-15T23:33:41.707Z,100668.72
2023-05-15T23:36:10.639Z,100666.16
2023-05-15T23:38:37.525Z,100663.59
2023-05-15T23:41:04.456Z,100674.19
2023-05-15T23:43:32.156Z,100671.63
2023-05-15T23:45:59.056Z,100673.47
2023-05-15T23:48:26.219Z,100674.38
2023-05-15T23:50:53.330Z,100678.78
2023-05-15T23:53:20.234Z,100671.81
2023-05-15T23:55:47.119Z,100669.25
2023-05-15T23:58:14.025Z,100670.16
